CMA CGM Musset — 9HA2284 — position and weather

sailwx.info

Track history (hours):
 
Tides and Currents Weather Stations Pressure Air Temp Water Temp Dewpoint Dewpoint Depression Visibility Wind Speed Wind Dir Waves Ship Positions

CMA CGM Musset

Last reported at 2017-Nov-18 17:31 UTC. Time now 2017-Nov-18 17:57 UTC.
Position N 19°12' W 096°07'.

Length 300 m; draft 11.7 m.

Type: Ship (hazmat cat D). MMSI: 248247000.

Date/timePositionNaut miles runAvg speedWind from/ knotsBaromVisibWave heightAir tempDewpointWater temp
2017-Nov-18 17:31N 19°12' W 096°07'4 8.8
2017-Nov-18 17:00N 19°12' W 096°03'611.2
2017-Nov-18 16:30N 19°17' W 096°00'713.6
2017-Nov-18 16:00N 19°24' W 096°01'917.7
2017-Nov-18 15:30N 19°32' W 096°04'1121.6
2017-Nov-18 15:00N 19°42' W 096°09'  
2017-Nov-13 02:00N 25°45' W 079°43'611.6
2017-Nov-13 01:30N 25°45' W 079°50'611.7
2017-Nov-13 01:00N 25°45' W 079°56'612.7
2017-Nov-13 00:30N 25°44' W 080°03'4 7.7
2017-Nov-13 00:00N 25°45' W 080°07'2 3.3
2017-Nov-12 23:30N 25°46' W 080°09'0 0.2
2017-Nov-12 22:59N 25°46' W 080°09'0 0.0
2017-Nov-12 22:29N 25°46' W 080°09'0 0.0
2017-Nov-12 21:59N 25°46' W 080°09'0 0.0
2017-Nov-12 21:29N 25°46' W 080°09'0 0.0
2017-Nov-12 20:59N 25°46' W 080°09'0 0.0
2017-Nov-12 20:26N 25°46' W 080°09'0 0.0
2017-Nov-12 19:59N 25°46' W 080°09'0 0.0
2017-Nov-12 19:29N 25°46' W 080°09'0 0.0
2017-Nov-12 18:56N 25°46' W 080°09'0 0.0
2017-Nov-12 18:29N 25°46' W 080°09'0 0.0
2017-Nov-12 17:59N 25°46' W 080°09'0 0.0
2017-Nov-12 17:29N 25°46' W 080°09'0 0.0
2017-Nov-12 16:59N 25°46' W 080°09'0 0.0
2017-Nov-12 16:29N 25°46' W 080°09'0 0.0
2017-Nov-12 15:59N 25°46' W 080°09'0 0.0
2017-Nov-12 15:29N 25°46' W 080°09'0 0.0
2017-Nov-12 14:59N 25°46' W 080°09'0 0.0
2017-Nov-12 14:29N 25°46' W 080°09'0 0.0
2017-Nov-12 13:59N 25°46' W 080°09'0 0.0
2017-Nov-12 13:29N 25°46' W 080°09'0 0.0
2017-Nov-12 12:59N 25°46' W 080°09'0 0.0
2017-Nov-12 12:29N 25°46' W 080°09'0 0.0
2017-Nov-12 11:59N 25°46' W 080°09'0 0.0
2017-Nov-12 11:29N 25°46' W 080°09'0 0.0
2017-Nov-12 11:00N 25°46' W 080°09'1 2.4
2017-Nov-12 10:30N 25°46' W 080°08'511.0
2017-Nov-12 10:00N 25°47' W 080°02'2 3.0
2017-Nov-12 09:30N 25°48' W 080°02'1 2.3
2017-Nov-12 09:00N 25°48' W 080°01'4 7.3
2017-Nov-12 08:30N 25°52' W 080°01'612.5
2017-Nov-12 08:00N 25°58' W 080°00'714.6
2017-Nov-12 07:30N 26°05' W 079°57'713.9
2017-Nov-12 07:00N 26°12' W 079°56'714.2
2017-Nov-12 06:30N 26°19' W 079°54'714.7
2017-Nov-12 06:00N 26°26' W 079°53'714.2
2017-Nov-12 05:30N 26°33' W 079°51'713.8
2017-Nov-12 04:59N 26°40' W 079°50'1313.9
2017-Nov-12 04:04N 26°53' W 079°49'114.3
2017-Nov-12 04:00N 26°53' W 079°49'714.4
2017-Nov-12 03:31N 27°01' W 079°50'714.4
2017-Nov-12 03:00N 27°08' W 079°51'28814.2
2017-Nov-11 06:40N 31°53' W 080°35'2 9.9
2017-Nov-11 06:30N 31°54' W 080°37'5 9.3
2017-Nov-11 06:00N 31°57' W 080°41'612.0
2017-Nov-11 05:30N 31°60' W 080°47'612.1
2017-Nov-11 05:01N 32°02' W 080°54'510.5
2017-Nov-11 04:30N 32°05' W 080°59'3 6.9
2017-Nov-11 04:01N 32°05' W 081°03'3 5.9
2017-Nov-11 03:30N 32°06' W 081°06'3 5.3
2017-Nov-11 03:01N 32°08' W 081°08'0 0.1
2017-Nov-11 02:27N 32°08' W 081°08'0 0.0
2017-Nov-11 01:57N 32°08' W 081°08'0 0.0
2017-Nov-11 01:27N 32°08' W 081°08'0 0.0
2017-Nov-11 00:57N 32°08' W 081°08'0 0.0
2017-Nov-11 00:21N 32°08' W 081°08'0 0.0
2017-Nov-10 23:57N 32°08' W 081°08'0 0.0
2017-Nov-10 23:21N 32°08' W 081°08'0 0.0
2017-Nov-10 22:57N 32°08' W 081°08'0 0.0
2017-Nov-10 22:21N 32°08' W 081°08'0 0.0
2017-Nov-10 21:57N 32°08' W 081°08'0 0.0
2017-Nov-10 21:27N 32°08' W 081°08'0 0.0
2017-Nov-10 20:57N 32°08' W 081°08'0 0.0
2017-Nov-10 20:27N 32°08' W 081°08'0 0.0
2017-Nov-10 19:57N 32°08' W 081°08'0 0.0
2017-Nov-10 19:27N 32°08' W 081°08'0 0.0
2017-Nov-10 18:57N 32°08' W 081°08'0 0.0
2017-Nov-10 18:27N 32°08' W 081°08'0 0.0
2017-Nov-10 17:57N 32°08' W 081°08'0 0.0
2017-Nov-10 17:21N 32°08' W 081°08'0 0.0
2017-Nov-10 16:57N 32°08' W 081°08'0 0.0
2017-Nov-10 15:57N 32°08' W 081°08'0 0.0
2017-Nov-10 15:27N 32°08' W 081°08'0 0.0
2017-Nov-10 14:57N 32°08' W 081°08'0 0.0
2017-Nov-10 14:15N 32°08' W 081°08'0 0.0
2017-Nov-10 13:57N 32°08' W 081°08'0 0.0
2017-Nov-10 13:21N 32°08' W 081°08'0 0.0
2017-Nov-10 12:57N 32°08' W 081°08'0 0.0
2017-Nov-10 12:27N 32°08' W 081°08'0 0.0
2017-Nov-10 11:57N 32°08' W 081°08'0 0.0
2017-Nov-10 11:21N 32°08' W 081°08'0 0.0
2017-Nov-10 10:51N 32°08' W 081°08'0 0.0
2017-Nov-10 10:15N 32°08' W 081°08'0 0.0
2017-Nov-10 09:57N 32°08' W 081°08'0 0.0
2017-Nov-10 09:27N 32°08' W 081°08'0 0.0
2017-Nov-10 08:57N 32°08' W 081°08'0 0.0
2017-Nov-10 08:27N 32°08' W 081°08'0 0.0
2017-Nov-10 07:51N 32°08' W 081°08'0 0.0
2017-Nov-10 07:27N 32°08' W 081°08'0 0.0
2017-Nov-10 06:51N 32°08' W 081°08'0 0.0
2017-Nov-10 06:27N 32°08' W 081°08'0 0.0
2017-Nov-10 05:57N 32°08' W 081°08'0 0.1
2017-Nov-10 05:30N 32°08' W 081°08'1 1.7
2017-Nov-10 05:00N 32°07' W 081°08'3 5.0
2017-Nov-10 04:30N 32°05' W 081°06'3 6.1
2017-Nov-10 04:00N 32°05' W 081°02'5 9.3
2017-Nov-10 03:30N 32°04' W 080°57'611.9
2017-Nov-10 03:00N 32°02' W 080°50'815.4
2017-Nov-10 02:30N 31°58' W 080°43'5 9.7
2017-Nov-10 01:59N 31°57' W 080°37'2 3.4
2017-Nov-10 01:30N 31°57' W 080°35'0 0.0
2017-Nov-10 01:00N 31°57' W 080°35'0 0.1
2017-Nov-10 00:30N 31°57' W 080°35'0 0.1
2017-Nov-10 00:00N 31°57' W 080°35'0 0.1
2017-Nov-09 23:30N 31°57' W 080°35'0 0.2
2017-Nov-09 23:00N 31°57' W 080°35'0 0.2
2017-Nov-09 22:30N 31°57' W 080°35'0 0.1
2017-Nov-09 21:54N 31°57' W 080°35'0 0.1
2017-Nov-09 21:30N 31°57' W 080°35'0 0.0
2017-Nov-09 21:00N 31°57' W 080°35'0 0.0
2017-Nov-09 20:30N 31°57' W 080°35'0 0.0
2017-Nov-09 19:54N 31°57' W 080°35'0 0.0
2017-Nov-09 19:30N 31°57' W 080°35'0 0.0
2017-Nov-09 19:00N 31°57' W 080°35'0 0.1
2017-Nov-09 18:24N 31°57' W 080°35'0 0.1
2017-Nov-09 18:00N 31°57' W 080°35'0 0.0
2017-Nov-09 17:30N 31°57' W 080°35'0 0.1
2017-Nov-09 17:00N 31°57' W 080°35'0 0.0
2017-Nov-09 16:30N 31°57' W 080°35'0 0.0
2017-Nov-09 15:30N 31°57' W 080°35'0 0.1
2017-Nov-09 15:00N 31°57' W 080°35'0 0.0
2017-Nov-09 14:24N 31°57' W 080°35'0 0.0
2017-Nov-09 14:00N 31°57' W 080°35'1 1.9
2017-Nov-09 13:30N 31°57' W 080°34'4 8.8
2017-Nov-09 13:00N 31°57' W 080°29'5 9.3
2017-Nov-09 12:30N 31°57' W 080°23'  
Track history (hours):
 
Tides and Currents Weather Stations Pressure Air Temp Water Temp Dewpoint Dewpoint Depression Visibility Wind Speed Wind Dir Waves Ship Positions

CMA CGM Musset

Last reported at 2017-Nov-18 17:31 UTC. Time now 2017-Nov-18 17:57 UTC.
Position N 19°12' W 096°07'.

Length 300 m; draft 11.7 m.

Type: Ship (hazmat cat D). MMSI: 248247000.

Date/timePositionNaut miles runAvg speedWind from/ knotsBaromVisibWave heightAir tempDewpointWater temp
2017-Nov-18 17:31N 19°12' W 096°07'4 8.8
2017-Nov-18 17:00N 19°12' W 096°03'611.2
2017-Nov-18 16:30N 19°17' W 096°00'713.6
2017-Nov-18 16:00N 19°24' W 096°01'917.7
2017-Nov-18 15:30N 19°32' W 096°04'1121.6
2017-Nov-18 15:00N 19°42' W 096°09'  
2017-Nov-13 02:00N 25°45' W 079°43'611.6
2017-Nov-13 01:30N 25°45' W 079°50'611.7
2017-Nov-13 01:00N 25°45' W 079°56'612.7
2017-Nov-13 00:30N 25°44' W 080°03'4 7.7
2017-Nov-13 00:00N 25°45' W 080°07'2 3.3
2017-Nov-12 23:30N 25°46' W 080°09'0 0.2
2017-Nov-12 22:59N 25°46' W 080°09'0 0.0
2017-Nov-12 22:29N 25°46' W 080°09'0 0.0
2017-Nov-12 21:59N 25°46' W 080°09'0 0.0
2017-Nov-12 21:29N 25°46' W 080°09'0 0.0
2017-Nov-12 20:59N 25°46' W 080°09'0 0.0
2017-Nov-12 20:26N 25°46' W 080°09'0 0.0
2017-Nov-12 19:59N 25°46' W 080°09'0 0.0
2017-Nov-12 19:29N 25°46' W 080°09'0 0.0
2017-Nov-12 18:56N 25°46' W 080°09'0 0.0
2017-Nov-12 18:29N 25°46' W 080°09'0 0.0
2017-Nov-12 17:59N 25°46' W 080°09'0 0.0
2017-Nov-12 17:29N 25°46' W 080°09'0 0.0
2017-Nov-12 16:59N 25°46' W 080°09'0 0.0
2017-Nov-12 16:29N 25°46' W 080°09'0 0.0
2017-Nov-12 15:59N 25°46' W 080°09'0 0.0
2017-Nov-12 15:29N 25°46' W 080°09'0 0.0
2017-Nov-12 14:59N 25°46' W 080°09'0 0.0
2017-Nov-12 14:29N 25°46' W 080°09'0 0.0
2017-Nov-12 13:59N 25°46' W 080°09'0 0.0
2017-Nov-12 13:29N 25°46' W 080°09'0 0.0
2017-Nov-12 12:59N 25°46' W 080°09'0 0.0
2017-Nov-12 12:29N 25°46' W 080°09'0 0.0
2017-Nov-12 11:59N 25°46' W 080°09'0 0.0
2017-Nov-12 11:29N 25°46' W 080°09'0 0.0
2017-Nov-12 11:00N 25°46' W 080°09'1 2.4
2017-Nov-12 10:30N 25°46' W 080°08'511.0
2017-Nov-12 10:00N 25°47' W 080°02'2 3.0
2017-Nov-12 09:30N 25°48' W 080°02'1 2.3
2017-Nov-12 09:00N 25°48' W 080°01'4 7.3
2017-Nov-12 08:30N 25°52' W 080°01'612.5
2017-Nov-12 08:00N 25°58' W 080°00'714.6
2017-Nov-12 07:30N 26°05' W 079°57'713.9
2017-Nov-12 07:00N 26°12' W 079°56'714.2
2017-Nov-12 06:30N 26°19' W 079°54'714.7
2017-Nov-12 06:00N 26°26' W 079°53'714.2
2017-Nov-12 05:30N 26°33' W 079°51'713.8
2017-Nov-12 04:59N 26°40' W 079°50'1313.9
2017-Nov-12 04:04N 26°53' W 079°49'114.3
2017-Nov-12 04:00N 26°53' W 079°49'714.4
2017-Nov-12 03:31N 27°01' W 079°50'714.4
2017-Nov-12 03:00N 27°08' W 079°51'28814.2
2017-Nov-11 06:40N 31°53' W 080°35'2 9.9
2017-Nov-11 06:30N 31°54' W 080°37'5 9.3
2017-Nov-11 06:00N 31°57' W 080°41'612.0
2017-Nov-11 05:30N 31°60' W 080°47'612.1
2017-Nov-11 05:01N 32°02' W 080°54'510.5
2017-Nov-11 04:30N 32°05' W 080°59'3 6.9
2017-Nov-11 04:01N 32°05' W 081°03'3 5.9
2017-Nov-11 03:30N 32°06' W 081°06'3 5.3
2017-Nov-11 03:01N 32°08' W 081°08'0 0.1
2017-Nov-11 02:27N 32°08' W 081°08'0 0.0
2017-Nov-11 01:57N 32°08' W 081°08'0 0.0
2017-Nov-11 01:27N 32°08' W 081°08'0 0.0
2017-Nov-11 00:57N 32°08' W 081°08'0 0.0
2017-Nov-11 00:21N 32°08' W 081°08'0 0.0
2017-Nov-10 23:57N 32°08' W 081°08'0 0.0
2017-Nov-10 23:21N 32°08' W 081°08'0 0.0
2017-Nov-10 22:57N 32°08' W 081°08'0 0.0
2017-Nov-10 22:21N 32°08' W 081°08'0 0.0
2017-Nov-10 21:57N 32°08' W 081°08'0 0.0
2017-Nov-10 21:27N 32°08' W 081°08'0 0.0
2017-Nov-10 20:57N 32°08' W 081°08'0 0.0
2017-Nov-10 20:27N 32°08' W 081°08'0 0.0
2017-Nov-10 19:57N 32°08' W 081°08'0 0.0
2017-Nov-10 19:27N 32°08' W 081°08'0 0.0
2017-Nov-10 18:57N 32°08' W 081°08'0 0.0
2017-Nov-10 18:27N 32°08' W 081°08'0 0.0
2017-Nov-10 17:57N 32°08' W 081°08'0 0.0
2017-Nov-10 17:21N 32°08' W 081°08'0 0.0
2017-Nov-10 16:57N 32°08' W 081°08'0 0.0
2017-Nov-10 15:57N 32°08' W 081°08'0 0.0
2017-Nov-10 15:27N 32°08' W 081°08'0 0.0
2017-Nov-10 14:57N 32°08' W 081°08'0 0.0
2017-Nov-10 14:15N 32°08' W 081°08'0 0.0
2017-Nov-10 13:57N 32°08' W 081°08'0 0.0
2017-Nov-10 13:21N 32°08' W 081°08'0 0.0
2017-Nov-10 12:57N 32°08' W 081°08'0 0.0
2017-Nov-10 12:27N 32°08' W 081°08'0 0.0
2017-Nov-10 11:57N 32°08' W 081°08'0 0.0
2017-Nov-10 11:21N 32°08' W 081°08'0 0.0
2017-Nov-10 10:51N 32°08' W 081°08'0 0.0
2017-Nov-10 10:15N 32°08' W 081°08'0 0.0
2017-Nov-10 09:57N 32°08' W 081°08'0 0.0
2017-Nov-10 09:27N 32°08' W 081°08'0 0.0
2017-Nov-10 08:57N 32°08' W 081°08'0 0.0
2017-Nov-10 08:27N 32°08' W 081°08'0 0.0
2017-Nov-10 07:51N 32°08' W 081°08'0 0.0
2017-Nov-10 07:27N 32°08' W 081°08'0 0.0
2017-Nov-10 06:51N 32°08' W 081°08'0 0.0
2017-Nov-10 06:27N 32°08' W 081°08'0 0.0
2017-Nov-10 05:57N 32°08' W 081°08'0 0.1
2017-Nov-10 05:30N 32°08' W 081°08'1 1.7
2017-Nov-10 05:00N 32°07' W 081°08'3 5.0
2017-Nov-10 04:30N 32°05' W 081°06'3 6.1
2017-Nov-10 04:00N 32°05' W 081°02'5 9.3
2017-Nov-10 03:30N 32°04' W 080°57'611.9
2017-Nov-10 03:00N 32°02' W 080°50'815.4
2017-Nov-10 02:30N 31°58' W 080°43'5 9.7
2017-Nov-10 01:59N 31°57' W 080°37'2 3.4
2017-Nov-10 01:30N 31°57' W 080°35'0 0.0
2017-Nov-10 01:00N 31°57' W 080°35'0 0.1
2017-Nov-10 00:30N 31°57' W 080°35'0 0.1
2017-Nov-10 00:00N 31°57' W 080°35'0 0.1
2017-Nov-09 23:30N 31°57' W 080°35'0 0.2
2017-Nov-09 23:00N 31°57' W 080°35'0 0.2
2017-Nov-09 22:30N 31°57' W 080°35'0 0.1
2017-Nov-09 21:54N 31°57' W 080°35'0 0.1
2017-Nov-09 21:30N 31°57' W 080°35'0 0.0
2017-Nov-09 21:00N 31°57' W 080°35'0 0.0
2017-Nov-09 20:30N 31°57' W 080°35'0 0.0
2017-Nov-09 19:54N 31°57' W 080°35'0 0.0
2017-Nov-09 19:30N 31°57' W 080°35'0 0.0
2017-Nov-09 19:00N 31°57' W 080°35'0 0.1
2017-Nov-09 18:24N 31°57' W 080°35'0 0.1
2017-Nov-09 18:00N 31°57' W 080°35'0 0.0
2017-Nov-09 17:30N 31°57' W 080°35'0 0.1
2017-Nov-09 17:00N 31°57' W 080°35'0 0.0
2017-Nov-09 16:30N 31°57' W 080°35'0 0.0
2017-Nov-09 15:30N 31°57' W 080°35'0 0.1
2017-Nov-09 15:00N 31°57' W 080°35'0 0.0
2017-Nov-09 14:24N 31°57' W 080°35'0 0.0
2017-Nov-09 14:00N 31°57' W 080°35'1 1.9
2017-Nov-09 13:30N 31°57' W 080°34'4 8.8
2017-Nov-09 13:00N 31°57' W 080°29'5 9.3
2017-Nov-09 12:30N 31°57' W 080°23'  

Dump ship's entire track history